Hedwig Village, Texas
Current Conditions -  °F | °C
As of 2:35 PM on Thursday 23 Oct 2014 (Local Time) from KMCJ Reporting Station
Clear Clear  
Wind Chill: 79°   Ceiling: Unl
Heat Index: 79°   Visibility: 10mi
Dew Point: 50°   Wind: 0mph
Humidity: 36%   Direction: NA
Pressure: 30.04"   Gusts: NA
Location:  29.7698°N, 95.5164°W
Report Text: KMCJ 231935Z AUTO 00000KT 10SM CLR 26/10 A3004 RMK AO1
Loading
Personal Weather Stations






























Interactive Weather Map
Tropical Storm Tracking
New forecast layout! Learn more

10-Day Weather Forecast

Advertisements
Track Severe Weather on mobile